• Join FlightAware (Why Join?)
  • Login
  • US Flag 
08:26PM EDT


 

Airport Tracker/Info


-or-


 

Live Flight TrackerFlight Track Log ✈ N325WR ✈ 14-Nov-2013 ✈ L38 - KSMS

Flight Track Log - Related Links

Times and Time Zones

All times are in EST time to prevent confusion due to time zone crossing. See the N325WR flight status page for this flight to view local times or setup timezone preferences in your user account.

Time Position Orientation Groundspeed Altitude Reporting Facility
EST Latitude Longitude Course Direction KTS MPH feet Rate Location/Type
12:43PM 30.2719 -90.8011 60° Northeast 162 186 8,700  Level Houston Center
12:44PM 30.2814 -90.7783 64° Northeast 175 201 9,300 1,560 Climbing Houston Center
12:44PM 30.3031 -90.7383 58° Northeast 181 208 10,400 1,380 Climbing Houston Center
12:45PM 30.3319 -90.6844 58° Northeast 194 223 11,900 1,320 Climbing Houston Center
12:46PM 30.3506 -90.6231 71° East 205 236 13,200 1,200 Climbing Houston Center
12:48PM 30.3711 -90.5592 70° East 212 244 14,500 1,200 Climbing Houston Center
12:49PM 30.3384 -90.5430 60° Northeast  Level Estimated
12:49PM 30.3961 -90.4953 66° East 215 247 15,800  Level Houston Center
12:50PM 30.4228 -90.4317 64° Northeast 219 252 17,000 960 Climbing Houston Center
12:51PM 30.4542 -90.3525 65° Northeast 224 258 17,900 900 Climbing Houston Center
12:52PM 30.4794 -90.2856 66° East 227 261 18,900 900 Climbing Houston Center
12:53PM 30.5069 -90.2189 64° Northeast 229 264 19,800 780 Climbing Houston Center
12:54PM 30.5344 -90.1506 65° Northeast 233 268 20,600 540 Climbing Houston Center
12:55PM 30.5642 -90.0808 64° Northeast 241 277 21,000 180 Climbing Houston Center
12:56PM 30.5964 -90.0019 65° Northeast 266 306 21,000  Level Houston Center
12:57PM 30.6378 -89.9008 65° Northeast 284 327 21,000  Level Houston Center
12:58PM 30.6731 -89.8161 64° Northeast 289 333 21,000  Level Houston Center
12:59PM 30.7067 -89.7308 65° Northeast 290 334 21,000  Level Houston Center
01:00PM 30.7408 -89.6444 65° Northeast 291 335 21,000  Level Houston Center
01:01PM 30.7758 -89.5592 64° Northeast 291 335 21,000  Level Houston Center
01:02PM 30.8092 -89.4744 65° Northeast 290 334 21,000  Level Houston Center
01:03PM 30.8431 -89.3892 65° Northeast 290 334 21,000  Level Houston Center
01:04PM 30.8836 -89.2869 65° Northeast 289 333 21,000  Level Houston Center
01:05PM 30.9178 -89.2017 65° Northeast 290 334 21,000  Level Houston Center
01:06PM 30.9519 -89.1153 65° Northeast 293 337 21,000  Level Houston Center
01:07PM 30.9850 -89.0297 66° East 290 334 21,000  Level Houston Center
01:08PM 31.0192 -88.9433 65° Northeast 292 336 21,000  Level Houston Center
01:09PM 31.0561 -88.8461 66° East 293 337 21,000  Level Houston Center
01:10PM 31.0906 -88.7603 65° Northeast 293 337 21,000  Level Houston Center
01:11PM 31.1250 -88.6733 65° Northeast 293 337 21,000  Level Houston Center
01:12PM 31.1586 -88.5864 66° East 293 337 21,000  Level Houston Center
01:13PM 31.1994 -88.4828 65° Northeast 292 336 21,000  Level Houston Center
01:14PM 31.2331 -88.3942 66° East 294 338 21,000  Level Houston Center
01:15PM 31.2669 -88.3056 66° East 296 341 21,000  Level Houston Center
01:17PM 31.3017 -88.2175 65° Northeast 296 341 21,000  Level Houston Center
01:18PM 31.3358 -88.1289 66° East 295 339 21,000  Level Houston Center
01:19PM 31.3692 -88.0406 66° East 295 339 21,000  Level Houston Center
01:20PM 31.4022 -87.9519 66° East 295 339 21,000  Level Houston Center
01:21PM 31.4425 -87.8467 66° East 295 339 21,000  Level Houston Center
01:22PM 31.4747 -87.7583 67° East 294 338 21,000  Level Houston Center
01:23PM 31.5081 -87.6714 66° East 293 337 21,000  Level Houston Center
01:24PM 31.5422 -87.5847 65° Northeast 293 337 21,000  Level Houston Center
01:25PM 31.5742 -87.4978 67° East 291 335 21,000  Level Houston Center
01:26PM 31.6075 -87.4122 65° Northeast 289 333 21,000  Level Houston Center
01:27PM 31.6461 -87.3083 66° East 290 334 21,000  Level Houston Center
01:28PM 31.6772 -87.2211 67° East 289 333 21,000  Level Houston Center
01:29PM 31.7097 -87.1336 66° East 291 335 21,000  Level Houston Center
01:30PM 31.7439 -87.0475 65° Northeast 291 335 21,000  Level Houston Center
01:31PM 31.7756 -86.9594 67° East 292 336 21,000  Level Houston Center
01:32PM 31.8211 -86.8447 65° Northeast 289 333 21,000  Level Atlanta Center
01:33PM 31.8503 -86.7575 68° East 289 333 21,000  Level Atlanta Center
01:34PM 31.8836 -86.6706 66° East 289 333 21,000  Level Atlanta Center
01:35PM 31.9144 -86.5858 67° East 289 333 21,000  Level Atlanta Center
01:36PM 31.9456 -86.4986 67° East 289 333 21,000  Level Atlanta Center
01:37PM 31.9803 -86.4211 62° Northeast 294 338 21,000  Level Atlanta Center
01:38PM 32.0094 -86.3242 70° East 294 338 21,000  Level Atlanta Center
01:39PM 32.0422 -86.2342 67° East 289 333 21,000  Level Atlanta Center
01:40PM 32.0708 -86.1467 69° East 289 333 21,000  Level Atlanta Center
01:41PM 32.1036 -86.0667 64° Northeast 294 338 21,000  Level Atlanta Center
01:42PM 32.1342 -85.9764 68° East 289 333 21,000  Level Atlanta Center
01:43PM 32.1669 -85.8864 67° East 289 333 21,000  Level Atlanta Center
01:44PM 32.1975 -85.8011 67° East 289 333 21,000  Level Atlanta Center
01:45PM 32.2300 -85.7133 66° East 289 333 21,000  Level Atlanta Center
01:46PM 32.2603 -85.6256 68° East 289 333 21,000  Level Atlanta Center
01:47PM 32.2928 -85.5378 66° East 289 333 21,000  Level Atlanta Center
01:48PM 32.3231 -85.4497 68° East 289 333 21,000  Level Atlanta Center
01:49PM 32.3553 -85.3642 66° East 289 333 21,000  Level Atlanta Center
01:50PM 32.3853 -85.2761 68° East 289 333 21,000  Level Atlanta Center
01:51PM 32.4072 -85.1853 74° East 289 333 21,000  Level Atlanta Center
01:52PM 32.4456 -85.0972 63° Northeast 289 333 21,000  Level Atlanta Center
01:53PM 32.4775 -85.0089 67° East 289 333 21,000  Level Atlanta Center
01:54PM 32.5075 -84.9206 68° East 289 333 21,000  Level Atlanta Center
01:55PM 32.5414 -84.8347 65° Northeast 289 333 21,000  Level Atlanta Center
01:56PM 32.5711 -84.7561 66° East 267 307 21,000  Level Atlanta Center
01:57PM 32.6008 -84.6675 68° East 274 315 21,000  Level Atlanta Center
01:58PM 32.6325 -84.5864 65° Northeast 274 315 21,000  Level Atlanta Center
01:59PM 32.6619 -84.4953 69° East 280 322 21,000  Level Atlanta Center
02:00PM 32.6917 -84.4139 67° East 273 314 21,000  Level Atlanta Center
02:01PM 32.7189 -84.3253 70° East 273 314 21,000  Level Atlanta Center
02:02PM 32.7506 -84.2339 68° East 273 314 21,000  Level Atlanta Center
02:03PM 32.7797 -84.1475 68° East 273 314 21,000  Level Atlanta Center
02:04PM 32.8069 -84.0636 69° East 268 308 21,000  Level Atlanta Center
02:05PM 32.8361 -83.9769 68° East 274 315 21,000  Level Atlanta Center
02:06PM 32.8633 -83.8931 69° East 274 315 21,000  Level Atlanta Center
02:07PM 32.8903 -83.8136 68° East 281 323 21,000  Level Atlanta Center
02:08PM 32.9214 -83.7269 67° East 281 323 21,000  Level Atlanta Center
02:09PM 32.9483 -83.6453 69° East 275 316 21,000  Level Atlanta Center
02:10PM 32.9772 -83.5583 68° East 275 316 21,100  Climbing Atlanta Center
02:11PM 33.0061 -83.4767 67° East 270 311 21,000 -60 Descending Atlanta Center
02:12PM 33.0347 -83.3919 68° East 270 311 21,000  Level Atlanta Center
02:13PM 33.0594 -83.3150 69° East 270 311 21,000  Level Atlanta Center
02:14PM 33.0861 -83.2256 70° East 275 316 21,000  Level Atlanta Center
02:15PM 33.1125 -83.1436 69° East 269 310 21,000  Level Atlanta Center
02:16PM 33.1411 -83.0589 68° East 268 308 21,000  Level Atlanta Center
02:17PM 33.1678 -82.9792 68° East 263 303 21,000  Level Atlanta Center
02:18PM 33.1981 -82.8844 69° East 268 308 21,000  Level Atlanta Center
02:19PM 33.2244 -82.8022 69° East 268 308 21,000  Level Atlanta Center
02:20PM 33.2528 -82.7197 68° East 268 308 21,000  Level Atlanta Center
02:21PM 33.2789 -82.6350 70° East 268 308 21,000  Level Atlanta Center
02:22PM 33.3053 -82.5500 70° East 268 308 21,000  Level Atlanta Center
02:23PM 33.3292 -82.4725 70° East 268 308 21,000  Level Atlanta Center
02:24PM 33.3553 -82.3900 69° East 268 308 21,000  Level Atlanta Center
02:27PM 33.4317 -82.1808 66° East 272 313 21,000  Level Jacksonville Center
02:28PM 33.4583 -82.0983 69° East 266 306 21,000  Level Jacksonville Center
02:29PM 33.4828 -82.0161 70° East 266 306 21,000 -180 Level Jacksonville Center
02:30PM 33.5092 -81.9286 70° East 266 306 20,700 -540 Descending Jacksonville Center
02:31PM 33.5400 -81.8408 67° East 276 318 20,000 -840 Descending Jacksonville Center
02:32PM 33.5661 -81.7508 71° East 281 323 19,100 -960 Descending Jacksonville Center
02:33PM 33.5925 -81.6583 71° East 287 330 18,100 -660 Descending Jacksonville Center
02:34PM 33.6228 -81.5681 68° East 292 336 17,800 -780 Descending Jacksonville Center
02:35PM 33.6511 -81.4753 70° East 292 336 16,600 -1,200 Descending Jacksonville Center
02:36PM 33.6833 -81.3825 67° East 292 336 15,400 -1,200 Descending Jacksonville Center
02:37PM 33.7075 -81.2997 71° East 292 336 14,300 -1,080 Descending Jacksonville Center
02:38PM 33.7375 -81.2067 69° East 292 336 13,300 -1,020 Descending Jacksonville Center
02:39PM 33.7675 -81.1189 68° East 287 330 12,300 -1,080 Descending Jacksonville Center
02:40PM 33.7914 -81.0283 72° East 287 330 11,200 -1,200 Descending Jacksonville Center
02:41PM 33.8192 -80.9403 69° East 287 330 10,000 -1,200 Descending Jacksonville Center
02:42PM 33.8472 -80.8597 67° East 280 322 8,900 -1,200 Descending Jacksonville Center
02:43PM 33.8833 -80.7811 61° Northeast 268 308 7,700 -1,200 Descending Jacksonville Center
02:44PM 33.9217 -80.7028 59° Northeast 262 302 6,500 -1,200 Descending Jacksonville Center
02:45PM 33.9517 -80.6294 64° Northeast 251 289 5,300 -1,200 Descending Jacksonville Center